Aviation Digital Data Service (ADDS)

Output produced by METARs form (2350 UTC 18 October 2019)
found at http://www.aviationweather.gov/metar/data/
 
METAR text: ZGHA 182300Z VRB01MPS 3500 BR NSC 13/13 Q1023 NOSIG
Conditions at: ZGHA (HUANGHUA/CHANGSH, CN) observed 2300 UTC 18 October 2019
Temperature: 13.0°C (55°F)
Dewpoint: 13.0°C (55°F) [RH = 100%]
Pressure (altimeter): 30.21 inches Hg (1023.0 mb)
Winds: variable direction winds at 2 MPH (2 knots; 1.0 m/s)
Visibility: 2.17 miles (3.49 km)
Ceiling: at least 12,000 feet AGL
Clouds: sky clear below 12,000 feet AGL
Weather: BR  (mist)

METAR text: ZGHA 182200Z 06001MPS 6000 NSC 13/13 Q1022 NOSIG
Conditions at: ZGHA (HUANGHUA/CHANGSH, CN) observed 2200 UTC 18 October 2019
Temperature: 13.0°C (55°F)
Dewpoint: 13.0°C (55°F) [RH = 100%]
Pressure (altimeter): 30.18 inches Hg (1022.0 mb)
Winds: from the ENE (60 degrees) at 2 MPH (2 knots; 1.0 m/s)
Visibility: 4 miles ( 6 km)
Ceiling: at least 12,000 feet AGL
Clouds: sky clear below 12,000 feet AGL
Weather: no significant weather observed at this time

METAR text: ZGHA 182100Z 00000MPS 6000 NSC 13/13 Q1022 NOSIG
Conditions at: ZGHA (HUANGHUA/CHANGSH, CN) observed 2100 UTC 18 October 2019
Temperature: 13.0°C (55°F)
Dewpoint: 13.0°C (55°F) [RH = 100%]
Pressure (altimeter): 30.18 inches Hg (1022.0 mb)
Winds: calm
Visibility: 4 miles ( 6 km)
Ceiling: at least 12,000 feet AGL
Clouds: sky clear below 12,000 feet AGL
Weather: no significant weather observed at this time

METAR text: ZGHA 182000Z VRB01MPS 6000 NSC 14/13 Q1022 NOSIG
Conditions at: ZGHA (HUANGHUA/CHANGSH, CN) observed 2000 UTC 18 October 2019
Temperature: 14.0°C (57°F)
Dewpoint: 13.0°C (55°F) [RH = 94%]
Pressure (altimeter): 30.18 inches Hg (1022.0 mb)
Winds: variable direction winds at 2 MPH (2 knots; 1.0 m/s)
Visibility: 4 miles ( 6 km)
Ceiling: at least 12,000 feet AGL
Clouds: sky clear below 12,000 feet AGL
Weather: no significant weather observed at this time

METAR text: ZGHA 181900Z 04001MPS 7000 NSC 14/14 Q1022 NOSIG
Conditions at: ZGHA (HUANGHUA/CHANGSH, CN) observed 1900 UTC 18 October 2019
Temperature: 14.0°C (57°F)
Dewpoint: 14.0°C (57°F) [RH = 100%]
Pressure (altimeter): 30.18 inches Hg (1022.0 mb)
Winds: from the NE (40 degrees) at 2 MPH (2 knots; 1.0 m/s)
Visibility: 4 miles ( 7 km)
Ceiling: at least 12,000 feet AGL
Clouds: sky clear below 12,000 feet AGL
Weather: no significant weather observed at this time

METAR text: ZGHA 181800Z 08001MPS 8000 NSC 14/14 Q1022 NOSIG
Conditions at: ZGHA (HUANGHUA/CHANGSH, CN) observed 1800 UTC 18 October 2019
Temperature: 14.0°C (57°F)
Dewpoint: 14.0°C (57°F) [RH = 100%]
Pressure (altimeter): 30.18 inches Hg (1022.0 mb)
Winds: from the E (80 degrees) at 2 MPH (2 knots; 1.0 m/s)
Visibility: 5 miles ( 8 km)
Ceiling: at least 12,000 feet AGL
Clouds: sky clear below 12,000 feet AGL
Weather: no significant weather observed at this time

METAR text: ZGHA 181700Z VRB01MPS CAVOK 15/14 Q1022 NOSIG
Conditions at: ZGHA (HUANGHUA/CHANGSH, CN) observed 1700 UTC 18 October 2019
Temperature: 15.0°C (59°F)
Dewpoint: 14.0°C (57°F) [RH = 94%]
Pressure (altimeter): 30.18 inches Hg (1022.0 mb)
Winds: variable direction winds at 2 MPH (2 knots; 1.0 m/s)
Visibility: 6 or more miles (10+ km)
Ceiling: ceiling and visibility are OK
Clouds: unknown
Weather: no significant weather observed at this time

METAR text: ZGHA 181600Z VRB01MPS CAVOK 15/14 Q1022 NOSIG
Conditions at: ZGHA (HUANGHUA/CHANGSH, CN) observed 1600 UTC 18 October 2019
Temperature: 15.0°C (59°F)
Dewpoint: 14.0°C (57°F) [RH = 94%]
Pressure (altimeter): 30.18 inches Hg (1022.0 mb)
Winds: variable direction winds at 2 MPH (2 knots; 1.0 m/s)
Visibility: 6 or more miles (10+ km)
Ceiling: ceiling and visibility are OK
Clouds: unknown
Weather: no significant weather observed at this time

METAR text: ZGHA 181500Z 00000MPS CAVOK 16/14 Q1022 NOSIG
Conditions at: ZGHA (HUANGHUA/CHANGSH, CN) observed 1500 UTC 18 October 2019
Temperature: 16.0°C (61°F)
Dewpoint: 14.0°C (57°F) [RH = 88%]
Pressure (altimeter): 30.18 inches Hg (1022.0 mb)
Winds: calm
Visibility: 6 or more miles (10+ km)
Ceiling: ceiling and visibility are OK
Clouds: unknown
Weather: no significant weather observed at this time

METAR text: ZGHA 181400Z VRB01MPS CAVOK 17/14 Q1022 NOSIG
Conditions at: ZGHA (HUANGHUA/CHANGSH, CN) observed 1400 UTC 18 October 2019
Temperature: 17.0°C (63°F)
Dewpoint: 14.0°C (57°F) [RH = 82%]
Pressure (altimeter): 30.18 inches Hg (1022.0 mb)
Winds: variable direction winds at 2 MPH (2 knots; 1.0 m/s)
Visibility: 6 or more miles (10+ km)
Ceiling: ceiling and visibility are OK
Clouds: unknown
Weather: no significant weather observed at this time

METAR text: ZGHA 181300Z 00000MPS CAVOK 19/14 Q1022 NOSIG
Conditions at: ZGHA (HUANGHUA/CHANGSH, CN) observed 1300 UTC 18 October 2019
Temperature: 19.0°C (66°F)
Dewpoint: 14.0°C (57°F) [RH = 73%]
Pressure (altimeter): 30.18 inches Hg (1022.0 mb)
Winds: calm
Visibility: 6 or more miles (10+ km)
Ceiling: ceiling and visibility are OK
Clouds: unknown
Weather: no significant weather observed at this time

METAR text: ZGHA 181200Z 30003MPS 280V340 CAVOK 19/14 Q1022 NOSIG
Conditions at: ZGHA (HUANGHUA/CHANGSH, CN) observed 1200 UTC 18 October 2019
Temperature: 19.0°C (66°F)
Dewpoint: 14.0°C (57°F) [RH = 73%]
Pressure (altimeter): 30.18 inches Hg (1022.0 mb)
Winds: from the WNW (300 degrees) at 7 MPH (6 knots; 3.1 m/s)
Visibility: 6 or more miles (10+ km)
Ceiling: ceiling and visibility are OK
Clouds: unknown
Weather: no significant weather observed at this time

METAR text: ZGHA 181100Z 30003MPS CAVOK 20/14 Q1021 NOSIG
Conditions at: ZGHA (HUANGHUA/CHANGSH, CN) observed 1100 UTC 18 October 2019
Temperature: 20.0°C (68°F)
Dewpoint: 14.0°C (57°F) [RH = 68%]
Pressure (altimeter): 30.15 inches Hg (1021.0 mb)
Winds: from the WNW (300 degrees) at 7 MPH (6 knots; 3.1 m/s)
Visibility: 6 or more miles (10+ km)
Ceiling: ceiling and visibility are OK
Clouds: unknown
Weather: no significant weather observed at this time

METAR text: ZGHA 181000Z 30002MPS 270V340 CAVOK 22/14 Q1021 NOSIG
Conditions at: ZGHA (HUANGHUA/CHANGSH, CN) observed 1000 UTC 18 October 2019
Temperature: 22.0°C (72°F)
Dewpoint: 14.0°C (57°F) [RH = 60%]
Pressure (altimeter): 30.15 inches Hg (1021.0 mb)
Winds: from the WNW (300 degrees) at 5 MPH (4 knots; 2.1 m/s)
Visibility: 6 or more miles (10+ km)
Ceiling: ceiling and visibility are OK
Clouds: unknown
Weather: no significant weather observed at this time

METAR text: ZGHA 180900Z 36003MPS 310V040 CAVOK 23/13 Q1021 NOSIG
Conditions at: ZGHA (HUANGHUA/CHANGSH, CN) observed 0900 UTC 18 October 2019
Temperature: 23.0°C (73°F)
Dewpoint: 13.0°C (55°F) [RH = 53%]
Pressure (altimeter): 30.15 inches Hg (1021.0 mb)
Winds: from the N (360 degrees) at 7 MPH (6 knots; 3.1 m/s)
Visibility: 6 or more miles (10+ km)
Ceiling: ceiling and visibility are OK
Clouds: unknown
Weather: no significant weather observed at this time

METAR text: ZGHA 180800Z 34003MPS 310V010 CAVOK 24/13 Q1021 NOSIG
Conditions at: ZGHA (HUANGHUA/CHANGSH, CN) observed 0800 UTC 18 October 2019
Temperature: 24.0°C (75°F)
Dewpoint: 13.0°C (55°F) [RH = 50%]
Pressure (altimeter): 30.15 inches Hg (1021.0 mb)
Winds: from the NNW (340 degrees) at 7 MPH (6 knots; 3.1 m/s)
Visibility: 6 or more miles (10+ km)
Ceiling: ceiling and visibility are OK
Clouds: unknown
Weather: no significant weather observed at this time

METAR text: ZGHA 180700Z 01002MPS 310V090 9999 SCT050 24/14 Q1021 NOSIG
Conditions at: ZGHA (HUANGHUA/CHANGSH, CN) observed 0700 UTC 18 October 2019
Temperature: 24.0°C (75°F)
Dewpoint: 14.0°C (57°F) [RH = 54%]
Pressure (altimeter): 30.15 inches Hg (1021.0 mb)
Winds: from the N (10 degrees) at 5 MPH (4 knots; 2.1 m/s)
Visibility: 6 or more miles (10+ km)
Ceiling: at least 12,000 feet AGL
Clouds: scattered clouds at 5000 feet AGL
Weather: no significant weather observed at this time

METAR text: ZGHA 180600Z 29004MPS 260V320 9999 SCT050 24/14 Q1022 NOSIG
Conditions at: ZGHA (HUANGHUA/CHANGSH, CN) observed 0600 UTC 18 October 2019
Temperature: 24.0°C (75°F)
Dewpoint: 14.0°C (57°F) [RH = 54%]
Pressure (altimeter): 30.18 inches Hg (1022.0 mb)
Winds: from the WNW (290 degrees) at 9 MPH (8 knots; 4.1 m/s)
Visibility: 6 or more miles (10+ km)
Ceiling: at least 12,000 feet AGL
Clouds: scattered clouds at 5000 feet AGL
Weather: no significant weather observed at this time

METAR text: ZGHA 180500Z VRB02MPS 9999 SCT050 23/14 Q1023 NOSIG
Conditions at: ZGHA (HUANGHUA/CHANGSH, CN) observed 0500 UTC 18 October 2019
Temperature: 23.0°C (73°F)
Dewpoint: 14.0°C (57°F) [RH = 57%]
Pressure (altimeter): 30.21 inches Hg (1023.0 mb)
Winds: variable direction winds at 5 MPH (4 knots; 2.1 m/s)
Visibility: 6 or more miles (10+ km)
Ceiling: at least 12,000 feet AGL
Clouds: scattered clouds at 5000 feet AGL
Weather: no significant weather observed at this time

METAR text: ZGHA 180400Z VRB03MPS 9999 FEW030 23/14 Q1023 NOSIG
Conditions at: ZGHA (HUANGHUA/CHANGSH, CN) observed 0400 UTC 18 October 2019
Temperature: 23.0°C (73°F)
Dewpoint: 14.0°C (57°F) [RH = 57%]
Pressure (altimeter): 30.21 inches Hg (1023.0 mb)
Winds: variable direction winds at 7 MPH (6 knots; 3.1 m/s)
Visibility: 6 or more miles (10+ km)
Ceiling: at least 12,000 feet AGL
Clouds: few clouds at 3000 feet AGL
Weather: no significant weather observed at this time

METAR text: ZGHA 180300Z VRB02MPS 9000 NSC 21/14 Q1024 NOSIG
Conditions at: ZGHA (HUANGHUA/CHANGSH, CN) observed 0300 UTC 18 October 2019
Temperature: 21.0°C (70°F)
Dewpoint: 14.0°C (57°F) [RH = 64%]
Pressure (altimeter): 30.24 inches Hg (1024.0 mb)
Winds: variable direction winds at 5 MPH (4 knots; 2.1 m/s)
Visibility: 6 miles ( 9 km)
Ceiling: at least 12,000 feet AGL
Clouds: sky clear below 12,000 feet AGL
Weather: no significant weather observed at this time

METAR text: ZGHA 180200Z 02002MPS 330V080 8000 SCT030 19/14 Q1025 NOSIG
Conditions at: ZGHA (HUANGHUA/CHANGSH, CN) observed 0200 UTC 18 October 2019
Temperature: 19.0°C (66°F)
Dewpoint: 14.0°C (57°F) [RH = 73%]
Pressure (altimeter): 30.27 inches Hg (1025.0 mb)
Winds: from the NNE (20 degrees) at 5 MPH (4 knots; 2.1 m/s)
Visibility: 5 miles ( 8 km)
Ceiling: at least 12,000 feet AGL
Clouds: scattered clouds at 3000 feet AGL
Weather: no significant weather observed at this time

METAR text: ZGHA 180100Z VRB01MPS 6000 NSC 18/14 Q1025 NOSIG
Conditions at: ZGHA (HUANGHUA/CHANGSH, CN) observed 0100 UTC 18 October 2019
Temperature: 18.0°C (64°F)
Dewpoint: 14.0°C (57°F) [RH = 77%]
Pressure (altimeter): 30.27 inches Hg (1025.0 mb)
Winds: variable direction winds at 2 MPH (2 knots; 1.0 m/s)
Visibility: 4 miles ( 6 km)
Ceiling: at least 12,000 feet AGL
Clouds: sky clear below 12,000 feet AGL
Weather: no significant weather observed at this time

METAR text: ZGHA 180000Z 03002MPS 5000 BR NSC 16/14 Q1024 NOSIG
Conditions at: ZGHA (HUANGHUA/CHANGSH, CN) observed 0000 UTC 18 October 2019
Temperature: 16.0°C (61°F)
Dewpoint: 14.0°C (57°F) [RH = 88%]
Pressure (altimeter): 30.24 inches Hg (1024.0 mb)
Winds: from the NNE (30 degrees) at 5 MPH (4 knots; 2.1 m/s)
Visibility: 3 miles ( 5 km)
Ceiling: at least 12,000 feet AGL
Clouds: sky clear below 12,000 feet AGL
Weather: BR  (mist)

METAR text: ZGHA 172300Z 06001MPS 3500 BR NSC 15/14 Q1024 NOSIG
Conditions at: ZGHA (HUANGHUA/CHANGSH, CN) observed 2300 UTC 17 October 2019
Temperature: 15.0°C (59°F)
Dewpoint: 14.0°C (57°F) [RH = 94%]
Pressure (altimeter): 30.24 inches Hg (1024.0 mb)
Winds: from the ENE (60 degrees) at 2 MPH (2 knots; 1.0 m/s)
Visibility: 2.17 miles (3.49 km)
Ceiling: at least 12,000 feet AGL
Clouds: sky clear below 12,000 feet AGL
Weather: BR  (mist)

METAR text: ZGHA 172200Z 04001MPS 5000 BR NSC 15/14 Q1023 NOSIG
Conditions at: ZGHA (HUANGHUA/CHANGSH, CN) observed 2200 UTC 17 October 2019
Temperature: 15.0°C (59°F)
Dewpoint: 14.0°C (57°F) [RH = 94%]
Pressure (altimeter): 30.21 inches Hg (1023.0 mb)
Winds: from the NE (40 degrees) at 2 MPH (2 knots; 1.0 m/s)
Visibility: 3 miles ( 5 km)
Ceiling: at least 12,000 feet AGL
Clouds: sky clear below 12,000 feet AGL
Weather: BR  (mist)

METAR text: ZGHA 172100Z 03002MPS 360V060 6000 FEW050 15/13 Q1023 NOSIG
Conditions at: ZGHA (HUANGHUA/CHANGSH, CN) observed 2100 UTC 17 October 2019
Temperature: 15.0°C (59°F)
Dewpoint: 13.0°C (55°F) [RH = 88%]
Pressure (altimeter): 30.21 inches Hg (1023.0 mb)
Winds: from the NNE (30 degrees) at 5 MPH (4 knots; 2.1 m/s)
Visibility: 4 miles ( 6 km)
Ceiling: at least 12,000 feet AGL
Clouds: few clouds at 5000 feet AGL
Weather: no significant weather observed at this time

METAR text: ZGHA 172000Z 36002MPS 6000 NSC 15/13 Q1023 NOSIG
Conditions at: ZGHA (HUANGHUA/CHANGSH, CN) observed 2000 UTC 17 October 2019
Temperature: 15.0°C (59°F)
Dewpoint: 13.0°C (55°F) [RH = 88%]
Pressure (altimeter): 30.21 inches Hg (1023.0 mb)
Winds: from the N (360 degrees) at 5 MPH (4 knots; 2.1 m/s)
Visibility: 4 miles ( 6 km)
Ceiling: at least 12,000 feet AGL
Clouds: sky clear below 12,000 feet AGL
Weather: no significant weather observed at this time

METAR text: ZGHA 171900Z 00000MPS 6000 NSC 15/14 Q1023 NOSIG
Conditions at: ZGHA (HUANGHUA/CHANGSH, CN) observed 1900 UTC 17 October 2019
Temperature: 15.0°C (59°F)
Dewpoint: 14.0°C (57°F) [RH = 94%]
Pressure (altimeter): 30.21 inches Hg (1023.0 mb)
Winds: calm
Visibility: 4 miles ( 6 km)
Ceiling: at least 12,000 feet AGL
Clouds: sky clear below 12,000 feet AGL
Weather: no significant weather observed at this time

METAR text: ZGHA 171800Z 02002MPS 6000 NSC 15/13 Q1024 NOSIG
Conditions at: ZGHA (HUANGHUA/CHANGSH, CN) observed 1800 UTC 17 October 2019
Temperature: 15.0°C (59°F)
Dewpoint: 13.0°C (55°F) [RH = 88%]
Pressure (altimeter): 30.24 inches Hg (1024.0 mb)
Winds: from the NNE (20 degrees) at 5 MPH (4 knots; 2.1 m/s)
Visibility: 4 miles ( 6 km)
Ceiling: at least 12,000 feet AGL
Clouds: sky clear below 12,000 feet AGL
Weather: no significant weather observed at this time

METAR text: ZGHA 171700Z 34003MPS 8000 NSC 16/13 Q1024 NOSIG
Conditions at: ZGHA (HUANGHUA/CHANGSH, CN) observed 1700 UTC 17 October 2019
Temperature: 16.0°C (61°F)
Dewpoint: 13.0°C (55°F) [RH = 82%]
Pressure (altimeter): 30.24 inches Hg (1024.0 mb)
Winds: from the NNW (340 degrees) at 7 MPH (6 knots; 3.1 m/s)
Visibility: 5 miles ( 8 km)
Ceiling: at least 12,000 feet AGL
Clouds: sky clear below 12,000 feet AGL
Weather: no significant weather observed at this time

METAR text: ZGHA 171600Z 31003MPS 8000 NSC 16/13 Q1025 NOSIG
Conditions at: ZGHA (HUANGHUA/CHANGSH, CN) observed 1600 UTC 17 October 2019
Temperature: 16.0°C (61°F)
Dewpoint: 13.0°C (55°F) [RH = 82%]
Pressure (altimeter): 30.27 inches Hg (1025.0 mb)
Winds: from the NW (310 degrees) at 7 MPH (6 knots; 3.1 m/s)
Visibility: 5 miles ( 8 km)
Ceiling: at least 12,000 feet AGL
Clouds: sky clear below 12,000 feet AGL
Weather: no significant weather observed at this time

METAR text: ZGHA 171500Z 31003MPS 8000 SCT030 16/13 Q1025 NOSIG
Conditions at: ZGHA (HUANGHUA/CHANGSH, CN) observed 1500 UTC 17 October 2019
Temperature: 16.0°C (61°F)
Dewpoint: 13.0°C (55°F) [RH = 82%]
Pressure (altimeter): 30.27 inches Hg (1025.0 mb)
Winds: from the NW (310 degrees) at 7 MPH (6 knots; 3.1 m/s)
Visibility: 5 miles ( 8 km)
Ceiling: at least 12,000 feet AGL
Clouds: scattered clouds at 3000 feet AGL
Weather: no significant weather observed at this time

METAR text: ZGHA 171400Z 30002MPS 8000 NSC 16/13 Q1025 NOSIG
Conditions at: ZGHA (HUANGHUA/CHANGSH, CN) observed 1400 UTC 17 October 2019
Temperature: 16.0°C (61°F)
Dewpoint: 13.0°C (55°F) [RH = 82%]
Pressure (altimeter): 30.27 inches Hg (1025.0 mb)
Winds: from the WNW (300 degrees) at 5 MPH (4 knots; 2.1 m/s)
Visibility: 5 miles ( 8 km)
Ceiling: at least 12,000 feet AGL
Clouds: sky clear below 12,000 feet AGL
Weather: no significant weather observed at this time

METAR text: ZGHA 171300Z 28002MPS 200V330 8000 NSC 16/13 Q1024 NOSIG
Conditions at: ZGHA (HUANGHUA/CHANGSH, CN) observed 1300 UTC 17 October 2019
Temperature: 16.0°C (61°F)
Dewpoint: 13.0°C (55°F) [RH = 82%]
Pressure (altimeter): 30.24 inches Hg (1024.0 mb)
Winds: from the W (280 degrees) at 5 MPH (4 knots; 2.1 m/s)
Visibility: 5 miles ( 8 km)
Ceiling: at least 12,000 feet AGL
Clouds: sky clear below 12,000 feet AGL
Weather: no significant weather observed at this time

METAR text: ZGHA 171200Z VRB01MPS 8000 BKN030 16/13 Q1024 NOSIG
Conditions at: ZGHA (HUANGHUA/CHANGSH, CN) observed 1200 UTC 17 October 2019
Temperature: 16.0°C (61°F)
Dewpoint: 13.0°C (55°F) [RH = 82%]
Pressure (altimeter): 30.24 inches Hg (1024.0 mb)
Winds: variable direction winds at 2 MPH (2 knots; 1.0 m/s)
Visibility: 5 miles ( 8 km)
Ceiling: 3000 feet AGL
Clouds: broken clouds at 3000 feet AGL
Weather: no significant weather observed at this time

Forecast for: ZGHA (HUANGHUA/CHANGSH, CN)
Text: TAF ZGHA 181904Z 1900/1924 31004MPS 6000 NSC TX27/1906Z TN14/1921Z
Forecast period: 0000 UTC 19 October 2019 to 0000 UTC 20 October 2019
Forecast type: FROM: standard forecast or significant change
Winds: from the NW (310 degrees) at 9 MPH (8 knots; 4.1 m/s)
Visibility: 4 miles (6 km)
Ceiling: unknown
Clouds: missing
Weather: no significant weather forecast for this period